createdAt,value
2023-06-12T00:01:26.257Z,89.90
2023-06-12T00:03:56.826Z,89.93
2023-06-12T00:06:24.292Z,90.08
2023-06-12T00:08:54.683Z,90.12
2023-06-12T00:11:24.689Z,90.11
2023-06-12T00:13:51.731Z,89.92
2023-06-12T00:16:20.057Z,89.82
2023-06-12T00:18:49.627Z,90.00
2023-06-12T00:21:17.380Z,90.29
2023-06-12T00:23:44.880Z,90.52
2023-06-12T00:26:13.113Z,90.95
2023-06-12T00:28:42.212Z,91.43
2023-06-12T00:31:18.609Z,91.90
2023-06-12T00:33:48.183Z,92.24
2023-06-12T00:36:17.621Z,92.73
2023-06-12T00:38:46.887Z,93.11
2023-06-12T00:41:16.086Z,93.17
2023-06-12T00:43:44.772Z,93.34
2023-06-12T00:46:14.514Z,93.69
2023-06-12T00:49:02.634Z,93.74
2023-06-12T00:51:42.181Z,93.82
2023-06-12T00:54:09.212Z,94.08
2023-06-12T00:56:36.269Z,94.22
2023-06-12T00:59:03.852Z,94.69
2023-06-12T01:01:30.919Z,94.54
2023-06-12T01:04:01.490Z,94.45
2023-06-12T01:06:56.010Z,94.65
2023-06-12T01:09:37.431Z,94.78
2023-06-12T01:12:08.062Z,94.83
2023-06-12T01:14:43.453Z,94.95
2023-06-12T01:17:11.973Z,95.03
2023-06-12T01:19:49.724Z,95.18
2023-06-12T01:22:17.325Z,95.26
2023-06-12T01:24:54.160Z,95.40
2023-06-12T01:27:24.282Z,95.49
2023-06-12T01:29:57.281Z,95.37
2023-06-12T01:32:26.600Z,95.33
2023-06-12T01:35:06.621Z,95.74
2023-06-12T01:37:48.720Z,95.86
2023-06-12T01:40:19.551Z,96.03
2023-06-12T01:42:47.527Z,96.13
2023-06-12T01:45:14.907Z,96.27
2023-06-12T01:48:01.881Z,96.68
2023-06-12T01:50:31.202Z,96.49
2023-06-12T01:52:58.161Z,96.83
2023-06-12T01:55:25.324Z,96.87
2023-06-12T01:58:09.244Z,96.82
2023-06-12T02:00:59.625Z,97.01
2023-06-12T02:03:29.652Z,97.24
2023-06-12T02:05:56.693Z,97.64
2023-06-12T02:08:26.504Z,97.65
2023-06-12T02:10:53.484Z,97.68
2023-06-12T02:13:20.600Z,97.74
2023-06-12T02:15:48.259Z,98.01
2023-06-12T02:18:16.139Z,98.01
2023-06-12T02:20:43.097Z,98.13
2023-06-12T02:23:10.474Z,98.35
2023-06-12T02:25:37.512Z,98.30
2023-06-12T02:28:15.477Z,98.40
2023-06-12T02:31:04.255Z,98.41
2023-06-12T02:33:40.054Z,98.66
2023-06-12T02:36:08.156Z,98.85
2023-06-12T02:38:36.051Z,98.80
2023-06-12T02:41:03.395Z,98.73
2023-06-12T02:43:33.004Z,98.65
2023-06-12T02:46:00.844Z,98.81
2023-06-12T02:48:31.314Z,98.78
2023-06-12T02:51:03.771Z,98.76
2023-06-12T02:53:39.877Z,98.78
2023-06-12T02:56:07.166Z,98.72
2023-06-12T02:58:35.150Z,98.80
2023-06-12T03:01:22.382Z,98.77
2023-06-12T03:03:53.728Z,98.93
2023-06-12T03:06:29.050Z,98.64
2023-06-12T03:08:56.609Z,98.65
2023-06-12T03:11:24.786Z,98.98
2023-06-12T03:13:52.464Z,99.00
2023-06-12T03:16:25.193Z,99.09
2023-06-12T03:18:52.203Z,99.06
2023-06-12T03:21:19.253Z,98.85
2023-06-12T03:23:46.605Z,98.80
2023-06-12T03:26:16.593Z,98.54
2023-06-12T03:28:45.275Z,98.41
2023-06-12T03:31:13.901Z,98.27
2023-06-12T03:33:41.521Z,97.94
2023-06-12T03:36:12.260Z,97.96
2023-06-12T03:38:40.119Z,97.25
2023-06-12T03:41:34.330Z,97.04
2023-06-12T03:44:03.513Z,96.47
2023-06-12T03:46:32.643Z,96.49
2023-06-12T03:48:59.849Z,96.62
2023-06-12T03:51:26.906Z,96.49
2023-06-12T03:53:55.071Z,96.56
2023-06-12T03:56:24.577Z,96.00
2023-06-12T03:58:52.036Z,95.92
2023-06-12T04:01:19.491Z,95.74
2023-06-12T04:03:48.971Z,95.51
2023-06-12T04:06:15.935Z,95.59
2023-06-12T04:08:47.006Z,95.10
2023-06-12T04:11:15.716Z,95.14
2023-06-12T04:13:42.640Z,94.65
2023-06-12T04:16:13.631Z,94.27
2023-06-12T04:18:43.874Z,93.69
2023-06-12T04:21:12.150Z,93.28
2023-06-12T04:23:41.975Z,93.30
2023-06-12T04:26:16.203Z,93.12
2023-06-12T04:28:45.215Z,92.45
2023-06-12T04:31:17.773Z,92.68
2023-06-12T04:33:46.131Z,92.52
2023-06-12T04:36:18.613Z,92.38
2023-06-12T04:38:53.329Z,92.05
2023-06-12T04:41:25.438Z,91.91
2023-06-12T04:46:53.203Z,92.13
2023-06-12T04:49:20.230Z,91.71
2023-06-12T04:51:49.760Z,91.31
2023-06-12T04:54:39.723Z,91.38
2023-06-12T04:57:17.012Z,91.32
2023-06-12T04:59:46.626Z,91.32
2023-06-12T05:02:15.178Z,91.38
2023-06-12T05:04:42.459Z,91.37
2023-06-12T05:07:19.987Z,91.29
2023-06-12T05:09:50.412Z,90.89
2023-06-12T05:12:28.404Z,90.31
2023-06-12T05:15:01.869Z,90.24
2023-06-12T05:17:42.602Z,90.81
2023-06-12T05:20:10.244Z,90.67
2023-06-12T05:22:40.632Z,90.89
2023-06-12T05:25:08.393Z,90.85
2023-06-12T05:27:36.768Z,90.97
2023-06-12T05:30:10.601Z,90.98
2023-06-12T05:32:38.668Z,90.93
2023-06-12T05:35:07.442Z,91.26
2023-06-12T05:37:34.489Z,91.42
2023-06-12T05:40:10.297Z,91.84
2023-06-12T05:42:38.414Z,91.79
2023-06-12T05:45:09.156Z,92.48
2023-06-12T05:47:37.712Z,92.35
2023-06-12T05:50:08.414Z,92.54
2023-06-12T05:52:40.036Z,92.96
2023-06-12T05:55:09.036Z,93.26
2023-06-12T05:57:37.591Z,93.26
2023-06-12T06:00:07.721Z,93.54
2023-06-12T06:02:45.301Z,93.52
2023-06-12T06:05:21.676Z,93.70
2023-06-12T06:07:51.172Z,93.77
2023-06-12T06:10:19.344Z,93.82
2023-06-12T06:12:47.041Z,93.27
2023-06-12T06:15:15.543Z,93.34
2023-06-12T06:17:43.602Z,93.86
2023-06-12T06:20:12.965Z,93.30
2023-06-12T06:22:43.805Z,93.21
2023-06-12T06:25:11.805Z,92.94
2023-06-12T06:27:40.452Z,92.63
2023-06-12T06:30:08.830Z,92.65
2023-06-12T06:32:36.409Z,92.94
2023-06-12T06:35:04.566Z,92.89
2023-06-12T06:37:32.238Z,92.49
2023-06-12T06:39:59.274Z,92.59
2023-06-12T06:42:29.085Z,92.50
2023-06-12T06:45:04.890Z,92.86
2023-06-12T06:47:32.148Z,93.53
2023-06-12T06:50:00.568Z,93.00
2023-06-12T06:52:27.837Z,92.85
2023-06-12T06:54:58.975Z,92.71
2023-06-12T06:57:27.460Z,92.62
2023-06-12T06:59:56.644Z,92.82
2023-06-12T07:02:23.912Z,93.08
2023-06-12T07:04:53.003Z,93.22
2023-06-12T07:07:19.937Z,93.52
2023-06-12T07:09:47.090Z,93.81
2023-06-12T07:12:14.711Z,93.74
2023-06-12T07:14:43.346Z,93.92
2023-06-12T07:17:10.390Z,94.27
2023-06-12T07:19:38.058Z,94.58
2023-06-12T07:22:06.134Z,94.76
2023-06-12T07:24:33.656Z,94.78
2023-06-12T07:27:02.094Z,94.66
2023-06-12T07:29:30.847Z,94.72
2023-06-12T07:31:58.198Z,94.76
2023-06-12T07:34:25.245Z,94.54
2023-06-12T07:36:53.443Z,94.70
2023-06-12T07:39:21.430Z,94.32
2023-06-12T07:41:49.355Z,95.08
2023-06-12T07:44:17.732Z,94.60
2023-06-12T07:46:45.626Z,94.75
2023-06-12T07:49:15.332Z,94.44
2023-06-12T07:51:42.868Z,94.22
2023-06-12T07:54:12.986Z,94.02
2023-06-12T07:56:43.578Z,94.35
2023-06-12T07:59:11.999Z,94.40
2023-06-12T08:01:43.490Z,94.36
2023-06-12T08:04:12.679Z,94.32
2023-06-12T08:06:42.201Z,94.47
2023-06-12T08:09:10.467Z,94.78
2023-06-12T08:11:40.467Z,94.89
2023-06-12T08:14:10.676Z,94.58
2023-06-12T08:16:39.823Z,95.00
2023-06-12T08:19:07.323Z,95.23
2023-06-12T08:21:35.954Z,95.58
2023-06-12T08:24:04.135Z,95.58
2023-06-12T08:26:33.602Z,95.38
2023-06-12T08:29:01.260Z,95.46
2023-06-12T08:31:35.253Z,94.86
2023-06-12T08:34:02.822Z,94.37
2023-06-12T08:36:29.992Z,94.00
2023-06-12T08:38:57.123Z,94.26
2023-06-12T08:41:24.412Z,94.00
2023-06-12T08:43:54.056Z,93.89
2023-06-12T08:46:23.446Z,93.60
2023-06-12T08:48:51.373Z,93.64
2023-06-12T08:51:18.404Z,93.35
2023-06-12T08:53:46.503Z,92.84
2023-06-12T08:56:13.526Z,92.69
2023-06-12T08:58:40.479Z,92.12
2023-06-12T09:01:13.287Z,92.07
2023-06-12T09:03:42.586Z,91.94
2023-06-12T09:06:09.836Z,91.87
2023-06-12T09:08:39.503Z,92.21
2023-06-12T09:11:06.653Z,92.15
2023-06-12T09:13:42.405Z,92.32
2023-06-12T09:16:14.394Z,92.50
2023-06-12T09:18:52.537Z,92.39
2023-06-12T09:21:24.506Z,92.53
2023-06-12T09:23:52.570Z,92.11
2023-06-12T09:26:22.574Z,91.87
2023-06-12T09:28:53.563Z,91.71
2023-06-12T09:31:22.239Z,91.68
2023-06-12T09:33:56.056Z,91.59
2023-06-12T09:36:31.660Z,91.18
2023-06-12T09:38:58.753Z,91.31
2023-06-12T09:41:26.822Z,90.82
2023-06-12T09:44:02.060Z,90.41
2023-06-12T09:46:30.704Z,90.50
2023-06-12T09:48:58.360Z,90.74
2023-06-12T09:51:27.047Z,91.06
2023-06-12T09:53:55.618Z,90.51
2023-06-12T09:56:22.523Z,90.17
2023-06-12T09:58:50.593Z,90.52
2023-06-12T10:01:20.048Z,90.67
2023-06-12T10:03:47.433Z,89.81
2023-06-12T10:06:15.526Z,89.69
2023-06-12T10:08:42.569Z,89.56
2023-06-12T10:11:09.720Z,89.35
2023-06-12T10:13:37.202Z,89.25
2023-06-12T10:16:05.110Z,89.63
2023-06-12T10:18:32.122Z,89.46
2023-06-12T10:20:59.251Z,89.34
2023-06-12T10:23:26.501Z,89.30
2023-06-12T10:25:54.070Z,89.68
2023-06-12T10:28:21.965Z,89.81
2023-06-12T10:31:13.687Z,89.73
2023-06-12T10:34:10.291Z,89.63
2023-06-12T10:36:44.525Z,89.52
2023-06-12T10:39:16.970Z,89.40
2023-06-12T10:41:55.346Z,89.33
2023-06-12T10:44:40.496Z,88.55
2023-06-12T10:47:18.816Z,88.10
2023-06-12T10:49:57.244Z,87.74
2023-06-12T10:52:24.850Z,87.54
2023-06-12T10:55:21.483Z,87.34
2023-06-12T10:57:50.579Z,87.51
2023-06-12T11:00:19.145Z,87.49
2023-06-12T11:02:58.235Z,87.50
2023-06-12T11:05:27.435Z,87.61
2023-06-12T11:08:00.024Z,87.30
2023-06-12T11:10:27.736Z,87.10
2023-06-12T11:12:54.784Z,86.32
2023-06-12T11:15:23.427Z,86.45
2023-06-12T11:17:52.120Z,86.31
2023-06-12T11:20:21.152Z,85.98
2023-06-12T11:22:48.404Z,85.83
2023-06-12T11:25:17.945Z,85.78
2023-06-12T11:27:45.568Z,85.32
2023-06-12T11:30:30.517Z,84.51
2023-06-12T11:33:11.150Z,84.20
2023-06-12T11:35:46.760Z,84.06
2023-06-12T11:40:48.890Z,84.12
2023-06-12T11:43:19.467Z,83.79
2023-06-12T11:45:46.508Z,83.10
2023-06-12T11:50:49.155Z,83.48
2023-06-12T11:53:18.097Z,83.62
2023-06-12T11:58:22.463Z,83.46
2023-06-12T12:00:50.790Z,83.62
2023-06-12T12:03:20.396Z,83.43
2023-06-12T12:05:47.570Z,83.29
2023-06-12T12:08:14.923Z,83.02
2023-06-12T12:10:42.506Z,82.76
2023-06-12T12:13:09.634Z,82.53
2023-06-12T12:15:43.259Z,82.53
2023-06-12T12:18:14.577Z,82.58
2023-06-12T12:20:43.069Z,82.85
2023-06-12T12:23:13.491Z,82.96
2023-06-12T12:25:45.088Z,82.86
2023-06-12T12:28:12.094Z,82.80
2023-06-12T12:30:40.060Z,82.95
2023-06-12T12:33:09.105Z,82.79
2023-06-12T12:35:37.237Z,82.61
2023-06-12T12:38:04.990Z,82.23
2023-06-12T12:40:33.406Z,82.24
2023-06-12T12:43:00.619Z,82.24
2023-06-12T12:45:28.595Z,81.99
2023-06-12T12:47:56.195Z,81.60
2023-06-12T12:50:27.743Z,81.05
2023-06-12T12:52:56.294Z,81.58
2023-06-12T12:55:23.242Z,81.73
2023-06-12T12:57:54.883Z,81.30
2023-06-12T13:00:30.267Z,80.94
2023-06-12T13:02:58.363Z,80.60
2023-06-12T13:05:25.574Z,80.62
2023-06-12T13:07:53.330Z,80.71
2023-06-12T13:10:21.696Z,80.52
2023-06-12T13:12:49.705Z,80.53
2023-06-12T13:15:16.713Z,80.14
2023-06-12T13:17:44.496Z,80.03
2023-06-12T13:20:12.368Z,80.06
2023-06-12T13:22:40.310Z,80.32
2023-06-12T13:25:08.611Z,80.47
2023-06-12T13:27:35.733Z,80.53
2023-06-12T13:30:04.667Z,80.50
2023-06-12T13:32:33.780Z,79.96
2023-06-12T13:35:01.803Z,79.89
2023-06-12T13:37:29.185Z,79.80
2023-06-12T13:39:56.295Z,80.10
2023-06-12T13:42:23.377Z,80.57
2023-06-12T13:44:50.771Z,81.18
2023-06-12T13:47:18.055Z,81.23
2023-06-12T13:49:46.028Z,81.41
2023-06-12T13:52:14.509Z,81.03
2023-06-12T13:54:42.092Z,81.07
2023-06-12T13:57:09.421Z,81.08
2023-06-12T13:59:37.797Z,81.15
2023-06-12T14:02:05.312Z,80.77
2023-06-12T14:04:33.074Z,80.51
2023-06-12T14:07:01.445Z,80.36
2023-06-12T14:09:28.350Z,80.01
2023-06-12T14:11:55.729Z,80.18
2023-06-12T14:14:23.574Z,80.47
2023-06-12T14:16:55.534Z,80.61
2023-06-12T14:19:25.307Z,80.27
2023-06-12T14:21:52.283Z,80.05
2023-06-12T14:24:36.214Z,80.34
2023-06-12T14:27:06.652Z,80.32
2023-06-12T14:29:33.914Z,80.56
2023-06-12T14:32:01.096Z,80.63
2023-06-12T14:34:28.749Z,80.59
2023-06-12T14:36:55.864Z,80.68
2023-06-12T14:39:22.851Z,80.54
2023-06-12T14:41:50.210Z,81.00
2023-06-12T14:44:17.635Z,81.27
2023-06-12T14:46:44.669Z,81.10
2023-06-12T14:49:12.646Z,80.66
2023-06-12T14:51:39.597Z,80.88
2023-06-12T14:54:06.653Z,80.81
2023-06-12T14:56:33.917Z,80.78
2023-06-12T14:59:01.443Z,80.74
2023-06-12T15:01:28.604Z,80.95
2023-06-12T15:03:57.491Z,81.20
2023-06-12T15:06:24.844Z,81.03
2023-06-12T15:08:51.793Z,81.15
2023-06-12T15:11:18.978Z,81.32
2023-06-12T15:13:46.319Z,81.62
2023-06-12T15:16:13.254Z,81.82
2023-06-12T15:18:44.903Z,81.84
2023-06-12T15:21:14.514Z,81.94
2023-06-12T15:23:41.729Z,81.97
2023-06-12T15:26:09.117Z,81.61
2023-06-12T15:28:36.150Z,81.36
2023-06-12T15:31:03.362Z,81.18
2023-06-12T15:33:30.445Z,81.21
2023-06-12T15:35:57.582Z,81.21
2023-06-12T15:38:48.109Z,81.13
2023-06-12T15:41:15.261Z,81.06
2023-06-12T15:43:42.375Z,81.12
2023-06-12T15:46:10.497Z,81.33
2023-06-12T15:48:41.412Z,81.60
2023-06-12T15:51:10.807Z,81.20
2023-06-12T15:53:40.130Z,81.07
2023-06-12T15:56:08.079Z,80.56
2023-06-12T15:58:36.290Z,80.40
2023-06-12T16:01:03.601Z,80.41
2023-06-12T16:03:31.039Z,80.26
2023-06-12T16:05:58.218Z,80.35
2023-06-12T16:08:26.485Z,80.56
2023-06-12T16:10:53.554Z,80.90
2023-06-12T16:13:20.910Z,80.93
2023-06-12T16:15:48.074Z,80.82
2023-06-12T16:18:17.748Z,81.08
2023-06-12T16:20:45.100Z,80.72
2023-06-12T16:23:13.389Z,80.63
2023-06-12T16:25:40.845Z,80.90
2023-06-12T16:28:08.111Z,80.97
2023-06-12T16:30:35.544Z,81.06
2023-06-12T16:33:16.993Z,81.19
2023-06-12T16:35:49.384Z,81.28
2023-06-12T16:38:16.869Z,81.48
2023-06-12T16:40:43.936Z,81.51
2023-06-12T16:43:10.969Z,81.54
2023-06-12T16:45:38.824Z,81.37
2023-06-12T16:48:06.782Z,81.19
2023-06-12T16:50:34.457Z,81.21
2023-06-12T16:53:01.562Z,81.28
2023-06-12T16:55:28.857Z,81.60
2023-06-12T16:57:56.008Z,81.86
2023-06-12T17:00:23.265Z,81.99
2023-06-12T17:02:50.969Z,82.08
2023-06-12T17:05:18.627Z,82.46
2023-06-12T17:07:47.370Z,82.34
2023-06-12T17:10:15.461Z,82.53
2023-06-12T17:12:43.107Z,82.60
2023-06-12T17:15:11.379Z,82.45
2023-06-12T17:17:39.486Z,82.43
2023-06-12T17:20:07.543Z,82.27
2023-06-12T17:22:35.289Z,82.09
2023-06-12T17:25:02.435Z,82.07
2023-06-12T17:27:30.017Z,82.05
2023-06-12T17:29:58.170Z,81.99
2023-06-12T17:32:26.698Z,81.98
2023-06-12T17:34:54.424Z,81.75
2023-06-12T17:37:21.563Z,81.87
2023-06-12T17:39:49.201Z,82.04
2023-06-12T17:42:16.379Z,82.29
2023-06-12T17:44:44.183Z,82.50
2023-06-12T17:47:11.307Z,82.56
2023-06-12T17:49:38.448Z,82.62
2023-06-12T17:52:06.348Z,82.63
2023-06-12T17:54:33.978Z,82.92
2023-06-12T17:57:01.442Z,83.02
2023-06-12T17:59:28.816Z,83.06
2023-06-12T18:01:56.068Z,83.29
2023-06-12T18:04:23.656Z,83.20
2023-06-12T18:06:51.461Z,82.96
2023-06-12T18:09:19.032Z,82.96
2023-06-12T18:11:46.372Z,82.74
2023-06-12T18:14:13.346Z,82.91
2023-06-12T18:16:40.608Z,82.69
2023-06-12T18:19:07.559Z,82.44
2023-06-12T18:21:34.670Z,82.13
2023-06-12T18:24:01.778Z,82.05
2023-06-12T18:26:30.194Z,82.03
2023-06-12T18:28:57.754Z,82.12
2023-06-12T18:31:25.119Z,82.12
2023-06-12T18:33:53.397Z,82.15
2023-06-12T18:36:20.467Z,82.20
2023-06-12T18:38:48.402Z,82.13
2023-06-12T18:41:16.163Z,82.15
2023-06-12T18:43:43.727Z,81.97
2023-06-12T18:46:10.997Z,82.17
2023-06-12T18:48:38.886Z,82.23
2023-06-12T18:51:09.265Z,82.29
2023-06-12T18:53:36.528Z,82.11
2023-06-12T18:56:04.492Z,82.30
2023-06-12T18:58:32.260Z,82.23
2023-06-12T19:00:59.320Z,82.05
2023-06-12T19:03:26.628Z,82.36
2023-06-12T19:05:53.837Z,82.44
2023-06-12T19:08:21.086Z,82.49
2023-06-12T19:10:48.615Z,82.64
2023-06-12T19:13:15.881Z,82.69
2023-06-12T19:15:43.529Z,82.52
2023-06-12T19:18:10.528Z,82.43
2023-06-12T19:20:37.728Z,82.57
2023-06-12T19:23:04.842Z,82.82
2023-06-12T19:25:32.134Z,82.98
2023-06-12T19:27:59.906Z,82.77
2023-06-12T19:30:27.353Z,82.71
2023-06-12T19:32:55.261Z,82.55
2023-06-12T19:35:22.688Z,82.41
2023-06-12T19:37:50.028Z,82.67
2023-06-12T19:40:17.597Z,82.53
2023-06-12T19:42:45.255Z,82.82
2023-06-12T19:45:15.250Z,82.75
2023-06-12T19:47:42.585Z,82.57
2023-06-12T19:50:10.612Z,82.50
2023-06-12T19:52:38.904Z,82.53
2023-06-12T19:55:09.475Z,82.42
2023-06-12T19:57:36.863Z,82.45
2023-06-12T20:00:04.625Z,82.64
2023-06-12T20:02:40.131Z,82.85
2023-06-12T20:05:08.343Z,82.66
2023-06-12T20:07:36.115Z,82.83
2023-06-12T20:10:05.284Z,82.75
2023-06-12T20:12:32.577Z,82.53
2023-06-12T20:15:01.560Z,82.45
2023-06-12T20:17:28.954Z,82.41
2023-06-12T20:19:56.262Z,82.40
2023-06-12T20:22:23.406Z,82.53
2023-06-12T20:24:50.475Z,82.37
2023-06-12T20:27:18.020Z,82.24
2023-06-12T20:29:44.968Z,82.17
2023-06-12T20:32:12.878Z,81.94
2023-06-12T20:34:40.307Z,81.92
2023-06-12T20:37:07.235Z,81.94
2023-06-12T20:39:35.912Z,81.83
2023-06-12T20:42:03.163Z,81.93
2023-06-12T20:44:30.421Z,81.75
2023-06-12T20:46:58.290Z,81.62
2023-06-12T20:49:26.559Z,81.28
2023-06-12T20:51:53.712Z,81.25
2023-06-12T20:54:21.274Z,81.05
2023-06-12T20:56:50.619Z,81.31
2023-06-12T20:59:21.112Z,81.63
2023-06-12T21:01:48.063Z,81.29
2023-06-12T21:04:15.518Z,81.26
2023-06-12T21:06:42.569Z,81.55
2023-06-12T21:09:10.348Z,81.14
2023-06-12T21:11:38.386Z,81.06
2023-06-12T21:14:07.127Z,81.20
2023-06-12T21:16:36.137Z,81.16
2023-06-12T21:19:04.545Z,81.29
2023-06-12T21:21:32.536Z,81.26
2023-06-12T21:23:59.789Z,81.43
2023-06-12T21:26:30.321Z,81.43
2023-06-12T21:29:01.143Z,81.28
2023-06-12T21:31:30.584Z,81.28
2023-06-12T21:33:58.654Z,81.26
2023-06-12T21:36:27.197Z,81.08
2023-06-12T21:38:54.670Z,81.78
2023-06-12T21:41:21.902Z,81.45
2023-06-12T21:43:48.847Z,81.24
2023-06-12T21:46:15.926Z,81.38
2023-06-12T21:48:43.038Z,81.25
2023-06-12T21:51:10.322Z,81.28
2023-06-12T21:53:37.443Z,81.55
2023-06-12T21:56:04.592Z,81.26
2023-06-12T21:58:32.336Z,80.99
2023-06-12T22:01:00.229Z,80.80
2023-06-12T22:03:27.975Z,80.83
2023-06-12T22:05:57.291Z,80.70
2023-06-12T22:08:24.977Z,80.78
2023-06-12T22:10:51.899Z,80.66
2023-06-12T22:13:19.660Z,80.55
2023-06-12T22:15:48.652Z,80.42
2023-06-12T22:18:16.367Z,80.39
2023-06-12T22:20:44.113Z,80.57
2023-06-12T22:23:13.189Z,80.39
2023-06-12T22:25:40.976Z,80.53
2023-06-12T22:28:11.049Z,80.46
2023-06-12T22:30:56.344Z,80.46
2023-06-12T22:33:25.423Z,80.19
2023-06-12T22:35:52.398Z,80.18
2023-06-12T22:38:19.525Z,80.09
2023-06-12T22:40:46.525Z,80.41
2023-06-12T22:43:15.760Z,80.42
2023-06-12T22:45:44.839Z,80.31
2023-06-12T22:48:18.234Z,80.29
2023-06-12T22:50:45.609Z,80.26
2023-06-12T22:53:13.781Z,80.38
2023-06-12T22:55:41.765Z,80.31
2023-06-12T22:58:08.797Z,80.53
2023-06-12T23:00:35.768Z,80.33
2023-06-12T23:03:03.551Z,80.61
2023-06-12T23:05:32.396Z,80.79
2023-06-12T23:08:01.194Z,80.49
2023-06-12T23:10:28.537Z,80.38
2023-06-12T23:12:59.167Z,80.26
2023-06-12T23:15:26.125Z,80.41
2023-06-12T23:17:53.077Z,80.84
2023-06-12T23:20:21.766Z,81.09
2023-06-12T23:22:52.787Z,80.85
2023-06-12T23:25:19.733Z,81.11
2023-06-12T23:27:46.676Z,81.04
2023-06-12T23:30:14.477Z,81.00
2023-06-12T23:32:43.309Z,80.52
2023-06-12T23:35:10.175Z,80.50
2023-06-12T23:37:37.764Z,80.59
2023-06-12T23:40:06.419Z,80.55
2023-06-12T23:42:34.798Z,80.40
2023-06-12T23:45:02.475Z,80.40
2023-06-12T23:47:29.745Z,80.75
2023-06-12T23:49:56.674Z,80.59
2023-06-12T23:52:24.435Z,80.61
2023-06-12T23:54:51.469Z,80.59
2023-06-12T23:57:18.311Z,80.79
2023-06-12T23:59:45.360Z,80.93
